createdAt,value
2019-06-08T00:00:13.043Z,96.57
2019-06-08T00:02:41.942Z,96.55
2019-06-08T00:05:12.577Z,97.12
2019-06-08T00:07:41.045Z,94.81
2019-06-08T00:10:09.680Z,95.68
2019-06-08T00:12:38.102Z,97.42
2019-06-08T00:15:07.250Z,96.92
2019-06-08T00:17:38.922Z,97.02
2019-06-08T00:20:08.355Z,96.67
2019-06-08T00:22:36.777Z,96.87
2019-06-08T00:25:06.925Z,97.49
2019-06-08T00:27:35.344Z,98.16
2019-06-08T00:30:07.991Z,98.80
2019-06-08T00:32:36.417Z,97.61
2019-06-08T00:35:08.073Z,98.14
2019-06-08T00:37:36.498Z,97.54
2019-06-08T00:40:08.955Z,97.16
2019-06-08T00:42:37.461Z,96.29
2019-06-08T00:45:10.158Z,97.06
2019-06-08T00:47:47.575Z,97.62
2019-06-08T00:50:09.585Z,97.83
2019-06-08T00:52:38.012Z,99.11
2019-06-08T00:55:08.044Z,97.70
2019-06-08T00:57:36.474Z,98.21
2019-06-08T01:00:11.002Z,98.62
2019-06-08T01:02:38.684Z,98.70
2019-06-08T01:05:07.428Z,98.48
2019-06-08T01:07:35.942Z,99.99
2019-06-08T01:10:06.900Z,99.15
2019-06-08T01:12:35.313Z,98.80
2019-06-08T01:15:04.845Z,98.22
2019-06-08T01:17:33.310Z,98.41
2019-06-08T01:20:01.799Z,99.24
2019-06-08T01:22:30.988Z,98.14
2019-06-08T01:24:59.404Z,98.47
2019-06-08T01:27:28.243Z,98.55
2019-06-08T01:29:56.609Z,98.84
2019-06-08T01:32:25.276Z,99.32
2019-06-08T01:34:54.712Z,98.78
2019-06-08T01:37:23.131Z,98.81
2019-06-08T01:39:51.582Z,98.27
2019-06-08T01:42:21.353Z,96.22
2019-06-08T01:44:49.986Z,95.96
2019-06-08T01:47:18.390Z,96.87
2019-06-08T01:49:46.815Z,97.35
2019-06-08T01:52:15.297Z,98.15
2019-06-08T01:54:43.717Z,97.44
2019-06-08T01:57:12.122Z,96.51
2019-06-08T01:59:40.627Z,96.74
2019-06-08T02:02:09.011Z,95.92
2019-06-08T02:04:37.426Z,97.33
2019-06-08T02:07:05.836Z,97.86
2019-06-08T02:09:34.850Z,97.50
2019-06-08T02:12:03.428Z,97.91
2019-06-08T02:14:33.182Z,98.19
2019-06-08T02:17:01.671Z,97.67
2019-06-08T02:19:30.567Z,97.31
2019-06-08T02:21:58.951Z,98.34
2019-06-08T02:24:27.378Z,98.74
2019-06-08T02:26:55.786Z,97.50
2019-06-08T02:29:24.240Z,97.49
2019-06-08T02:31:52.654Z,97.45
2019-06-08T02:34:21.074Z,96.43
2019-06-08T02:36:49.480Z,97.76
2019-06-08T02:39:17.901Z,97.65
2019-06-08T02:41:46.309Z,95.90
2019-06-08T02:44:14.735Z,96.75
2019-06-08T02:46:43.149Z,97.08
2019-06-08T02:49:11.567Z,97.50
2019-06-08T02:51:41.198Z,97.26
2019-06-08T02:54:10.584Z,99.53
2019-06-08T02:56:41.438Z,99.96
2019-06-08T02:59:12.904Z,98.69
2019-06-08T03:01:42.280Z,97.36
2019-06-08T03:04:11.976Z,96.97
2019-06-08T03:06:43.524Z,96.92
2019-06-08T03:09:11.946Z,97.07
2019-06-08T03:11:41.907Z,97.82
2019-06-08T03:14:10.302Z,98.83
2019-06-08T03:16:41.124Z,99.54
2019-06-08T03:19:21.186Z,98.19
2019-06-08T03:21:40.612Z,97.40
2019-06-08T03:24:09.137Z,96.54
2019-06-08T03:26:40.887Z,95.88
2019-06-08T03:29:07.685Z,94.51
2019-06-08T03:31:43.929Z,95.10
2019-06-08T03:34:06.236Z,96.30
2019-06-08T03:36:39.042Z,95.55
2019-06-08T03:39:07.034Z,95.56
2019-06-08T03:41:36.234Z,95.80
2019-06-08T03:44:05.399Z,95.48
2019-06-08T03:46:34.579Z,95.72
2019-06-08T03:49:02.937Z,94.73
2019-06-08T03:51:35.260Z,94.08
2019-06-08T03:54:01.553Z,94.37
2019-06-08T03:56:29.980Z,94.36
2019-06-08T03:58:58.380Z,95.00
2019-06-08T04:01:26.812Z,94.44
2019-06-08T04:03:59.785Z,93.68
2019-06-08T04:06:25.364Z,93.40
2019-06-08T04:08:53.769Z,93.68
2019-06-08T04:11:22.191Z,94.14
2019-06-08T04:13:50.595Z,92.96
2019-06-08T04:16:20.665Z,92.74
2019-06-08T04:18:50.330Z,92.29
2019-06-08T04:21:18.955Z,93.59
2019-06-08T04:23:47.418Z,93.33
2019-06-08T04:26:15.787Z,92.84
2019-06-08T04:28:44.764Z,92.92
2019-06-08T04:31:13.791Z,93.87
2019-06-08T04:33:44.148Z,93.70
2019-06-08T04:36:12.355Z,92.19
2019-06-08T04:38:41.325Z,92.34
2019-06-08T04:41:10.148Z,92.14
2019-06-08T04:43:40.318Z,92.42
2019-06-08T04:46:08.846Z,91.79
2019-06-08T04:48:38.625Z,92.59
2019-06-08T04:51:07.483Z,91.11
2019-06-08T04:53:35.879Z,91.03
2019-06-08T04:56:04.376Z,92.51
2019-06-08T04:58:32.793Z,92.76
2019-06-08T05:01:01.197Z,92.26
2019-06-08T05:03:29.607Z,92.00
2019-06-08T05:05:58.018Z,90.65
2019-06-08T05:08:26.428Z,90.06
2019-06-08T05:10:54.842Z,88.76
2019-06-08T05:13:23.274Z,88.82
2019-06-08T05:15:51.667Z,88.24
2019-06-08T05:18:20.071Z,87.26
2019-06-08T05:20:50.876Z,86.19
2019-06-08T05:23:18.619Z,85.98
2019-06-08T05:25:47.289Z,85.61
2019-06-08T05:28:15.635Z,85.41
2019-06-08T05:30:45.196Z,86.52
2019-06-08T05:33:13.644Z,85.46
2019-06-08T05:35:43.363Z,84.46
2019-06-08T05:38:12.095Z,84.06
2019-06-08T05:40:41.511Z,83.15
2019-06-08T05:43:10.122Z,81.89
2019-06-08T05:45:39.601Z,82.25
2019-06-08T05:48:08.026Z,82.16
2019-06-08T05:50:36.469Z,82.46
2019-06-08T05:53:05.227Z,82.20
2019-06-08T05:55:33.636Z,81.78
2019-06-08T05:58:02.083Z,81.48
2019-06-08T06:00:30.477Z,80.38
2019-06-08T06:02:58.890Z,80.40
2019-06-08T06:05:27.305Z,80.89
2019-06-08T06:07:55.718Z,81.29
2019-06-08T06:10:24.124Z,81.31
2019-06-08T06:12:52.558Z,81.22
2019-06-08T06:15:20.970Z,80.03
2019-06-08T06:17:49.850Z,79.67
2019-06-08T06:20:18.752Z,78.25
2019-06-08T06:22:47.689Z,78.57
2019-06-08T06:25:16.297Z,76.87
2019-06-08T06:27:45.553Z,74.58
2019-06-08T06:30:14.848Z,74.41
2019-06-08T06:32:43.843Z,73.55
2019-06-08T06:35:13.532Z,74.08
2019-06-08T06:37:41.951Z,73.79
2019-06-08T06:40:10.791Z,73.05
2019-06-08T06:42:39.225Z,72.66
2019-06-08T06:45:08.264Z,72.72
2019-06-08T06:47:36.762Z,72.24
2019-06-08T06:50:09.776Z,72.13
2019-06-08T06:52:38.186Z,71.95
2019-06-08T06:55:07.938Z,71.74
2019-06-08T06:57:36.956Z,71.48
2019-06-08T07:00:08.642Z,70.52
2019-06-08T07:02:37.059Z,70.17
2019-06-08T07:05:07.406Z,69.26
2019-06-08T07:07:35.996Z,67.47
2019-06-08T07:10:06.815Z,66.92
2019-06-08T07:12:35.233Z,66.65
2019-06-08T07:15:04.806Z,67.41
2019-06-08T07:17:33.224Z,67.87
2019-06-08T07:20:01.643Z,65.37
2019-06-08T07:22:30.062Z,63.80
2019-06-08T07:24:58.703Z,63.64
2019-06-08T07:27:27.053Z,64.03
2019-06-08T07:29:55.460Z,63.58
2019-06-08T07:32:23.889Z,63.52
2019-06-08T07:34:53.150Z,62.03
2019-06-08T07:37:21.597Z,59.78
2019-06-08T07:39:50.497Z,60.25
2019-06-08T07:42:20.093Z,58.94
2019-06-08T07:44:48.811Z,59.17
2019-06-08T07:47:17.216Z,58.69
2019-06-08T07:49:47.000Z,57.54
2019-06-08T07:52:15.621Z,58.30
2019-06-08T07:54:44.027Z,56.22
2019-06-08T07:57:12.452Z,55.71
2019-06-08T07:59:40.864Z,55.94
2019-06-08T08:02:09.276Z,56.40
2019-06-08T08:04:37.692Z,54.44
2019-06-08T08:07:06.102Z,53.76
2019-06-08T08:09:34.553Z,55.17
2019-06-08T08:12:02.964Z,52.47
2019-06-08T08:14:31.371Z,52.04
2019-06-08T08:16:59.787Z,50.83
2019-06-08T08:19:28.206Z,50.85
2019-06-08T08:22:00.095Z,49.51
2019-06-08T08:24:27.198Z,50.13
2019-06-08T08:26:59.304Z,51.47
2019-06-08T08:29:28.199Z,49.22
2019-06-08T08:31:58.798Z,49.38
2019-06-08T08:34:28.296Z,49.03
2019-06-08T08:37:01.265Z,48.89
2019-06-08T08:39:27.580Z,49.47
2019-06-08T08:41:59.383Z,48.04
2019-06-08T08:44:28.238Z,47.20
2019-06-08T08:46:59.403Z,47.48
2019-06-08T08:49:28.089Z,47.19
2019-06-08T08:51:59.039Z,47.47
2019-06-08T08:54:27.561Z,46.19
2019-06-08T08:57:02.886Z,46.00
2019-06-08T08:59:28.086Z,44.81
2019-06-08T09:01:57.520Z,46.51
2019-06-08T09:04:27.728Z,45.91
2019-06-08T09:07:02.368Z,44.13
2019-06-08T09:09:28.816Z,45.40
2019-06-08T09:12:00.256Z,42.96
2019-06-08T09:14:28.099Z,43.60
2019-06-08T09:16:59.807Z,43.34
2019-06-08T09:19:28.059Z,43.41
2019-06-08T09:21:58.963Z,41.82
2019-06-08T09:24:28.624Z,42.06
2019-06-08T09:27:00.835Z,41.73
2019-06-08T09:29:28.900Z,42.80
2019-06-08T09:31:59.021Z,42.15
2019-06-08T09:34:28.268Z,40.83
2019-06-08T09:37:00.183Z,41.65
2019-06-08T09:39:28.670Z,41.85
2019-06-08T09:42:00.401Z,42.23
2019-06-08T09:44:28.125Z,40.06
2019-06-08T09:47:00.823Z,40.15
2019-06-08T09:49:27.989Z,41.28
2019-06-08T09:52:00.315Z,41.02
2019-06-08T09:54:28.286Z,39.67
2019-06-08T09:57:00.930Z,40.44
2019-06-08T09:59:28.510Z,40.28
2019-06-08T10:02:05.156Z,40.20
2019-06-08T10:04:29.209Z,39.25
2019-06-08T10:07:00.167Z,39.66
2019-06-08T10:09:28.410Z,38.45
2019-06-08T10:11:59.581Z,38.36
2019-06-08T10:14:28.182Z,37.42
2019-06-08T10:16:59.124Z,37.88
2019-06-08T10:19:26.897Z,38.31
2019-06-08T10:21:56.782Z,40.35
2019-06-08T10:24:25.489Z,38.84
2019-06-08T10:26:55.191Z,40.19
2019-06-08T10:29:23.729Z,40.76
2019-06-08T10:31:52.142Z,38.81
2019-06-08T10:34:20.602Z,38.86
2019-06-08T10:36:48.998Z,38.38
2019-06-08T10:39:17.468Z,38.45
2019-06-08T10:41:51.280Z,38.11
2019-06-08T10:44:18.089Z,39.13
2019-06-08T10:46:48.186Z,38.96
2019-06-08T10:49:18.378Z,39.14
2019-06-08T10:51:48.733Z,38.53
2019-06-08T10:54:17.428Z,38.71
2019-06-08T10:56:48.416Z,38.36
2019-06-08T10:59:18.331Z,39.17
2019-06-08T11:01:46.164Z,39.67
2019-06-08T11:04:14.594Z,40.05
2019-06-08T11:06:42.989Z,39.61
2019-06-08T11:09:14.394Z,38.85
2019-06-08T11:11:41.546Z,40.44
2019-06-08T11:14:12.842Z,39.22
2019-06-08T11:16:40.158Z,38.58
2019-06-08T11:19:13.136Z,39.16
2019-06-08T11:21:38.831Z,38.52
2019-06-08T11:24:19.448Z,38.02
2019-06-08T11:26:39.957Z,38.00
2019-06-08T11:29:11.897Z,36.25
2019-06-08T11:31:39.294Z,36.94
2019-06-08T11:34:08.652Z,35.49
2019-06-08T11:36:39.462Z,35.83
2019-06-08T11:39:10.905Z,36.11
2019-06-08T11:41:38.321Z,35.80
2019-06-08T11:44:08.962Z,37.29
2019-06-08T11:46:38.457Z,35.62
2019-06-08T11:49:12.570Z,34.95
2019-06-08T11:51:37.852Z,34.47
2019-06-08T11:54:25.527Z,36.08
2019-06-08T11:56:37.600Z,35.92
2019-06-08T11:59:07.303Z,34.82
2019-06-08T12:01:35.743Z,35.69
2019-06-08T12:04:04.316Z,35.41
2019-06-08T12:06:33.123Z,36.09
2019-06-08T12:09:02.671Z,35.21
2019-06-08T12:11:31.146Z,36.19
2019-06-08T12:13:59.550Z,36.33
2019-06-08T12:16:28.358Z,37.08
2019-06-08T12:18:58.634Z,36.90
2019-06-08T12:21:27.444Z,36.60
2019-06-08T12:23:55.941Z,37.63
2019-06-08T12:26:24.360Z,38.08
2019-06-08T12:28:52.766Z,36.53
2019-06-08T12:31:22.589Z,35.81
2019-06-08T12:33:51.366Z,34.89
2019-06-08T12:36:20.886Z,35.89
2019-06-08T12:38:49.502Z,36.44
2019-06-08T12:41:19.254Z,36.45
2019-06-08T12:43:48.057Z,34.58
2019-06-08T12:46:19.187Z,35.47
2019-06-08T12:48:46.659Z,35.87
2019-06-08T12:51:16.445Z,36.27
2019-06-08T12:53:45.227Z,34.71
2019-06-08T12:56:14.796Z,34.71
2019-06-08T12:58:43.500Z,35.31
2019-06-08T13:01:12.866Z,33.86
2019-06-08T13:03:41.302Z,34.53
2019-06-08T13:06:12.067Z,34.53
2019-06-08T13:08:39.856Z,34.93
2019-06-08T13:11:09.748Z,34.86
2019-06-08T13:13:38.422Z,34.94
2019-06-08T13:16:06.842Z,34.84
2019-06-08T13:18:35.251Z,35.02
2019-06-08T13:21:16.693Z,36.51
2019-06-08T13:23:33.806Z,36.51
2019-06-08T13:26:02.218Z,34.52
2019-06-08T13:28:30.624Z,35.71
2019-06-08T13:30:59.034Z,36.87
2019-06-08T13:33:28.096Z,35.91
2019-06-08T13:35:58.020Z,37.22
2019-06-08T13:38:27.784Z,37.30
2019-06-08T13:40:58.596Z,37.15
2019-06-08T13:43:26.485Z,38.17
2019-06-08T13:45:54.895Z,36.30
2019-06-08T13:48:23.420Z,36.24
2019-06-08T13:50:52.313Z,36.70
2019-06-08T13:53:27.300Z,36.16
2019-06-08T13:55:56.420Z,36.55
2019-06-08T13:58:26.529Z,34.93
2019-06-08T14:00:51.489Z,34.91
2019-06-08T14:03:21.359Z,35.35
2019-06-08T14:05:50.039Z,33.94
2019-06-08T14:08:20.670Z,35.41
2019-06-08T14:10:48.594Z,35.48
2019-06-08T14:13:19.808Z,35.48
2019-06-08T14:15:48.724Z,35.08
2019-06-08T14:18:22.614Z,36.13
2019-06-08T14:20:48.394Z,36.61
2019-06-08T14:23:19.690Z,35.89
2019-06-08T14:25:53.878Z,36.01
2019-06-08T14:28:19.235Z,37.57
2019-06-08T14:30:47.962Z,36.13
2019-06-08T14:33:23.024Z,36.13
2019-06-08T14:35:46.740Z,35.84
2019-06-08T14:38:15.176Z,35.34
2019-06-08T14:40:43.598Z,34.68
2019-06-08T14:43:12.013Z,34.09
2019-06-08T14:45:40.416Z,34.94
2019-06-08T14:48:08.841Z,34.87
2019-06-08T14:50:40.275Z,35.97
2019-06-08T14:53:08.473Z,35.80
2019-06-08T14:55:38.727Z,35.33
2019-06-08T14:58:08.356Z,35.34
2019-06-08T15:00:38.025Z,35.23
2019-06-08T15:03:07.751Z,34.30
2019-06-08T15:05:36.397Z,32.52
2019-06-08T15:08:04.920Z,32.67
2019-06-08T15:10:33.297Z,33.00
2019-06-08T15:13:01.879Z,32.69
2019-06-08T15:15:32.165Z,32.66
2019-06-08T15:18:00.432Z,32.99
2019-06-08T15:20:28.845Z,33.44
2019-06-08T15:22:57.934Z,33.76
2019-06-08T15:25:28.999Z,33.17
2019-06-08T15:27:58.253Z,33.16
2019-06-08T15:30:29.168Z,32.94
2019-06-08T15:32:58.653Z,33.41
2019-06-08T15:35:27.415Z,31.87
2019-06-08T15:37:58.286Z,30.80
2019-06-08T15:40:26.064Z,31.70
2019-06-08T15:42:54.482Z,32.87
2019-06-08T15:45:24.025Z,33.17
2019-06-08T15:47:52.690Z,33.36
2019-06-08T15:50:22.251Z,32.59
2019-06-08T15:52:50.910Z,32.88
2019-06-08T15:55:19.655Z,33.24
2019-06-08T15:57:48.215Z,31.22
2019-06-08T16:00:18.421Z,32.29
2019-06-08T16:02:46.949Z,33.10
2019-06-08T16:05:15.512Z,32.89
2019-06-08T16:07:43.917Z,32.79
2019-06-08T16:10:12.784Z,33.40
2019-06-08T16:12:41.194Z,31.89
2019-06-08T16:15:10.252Z,31.53
2019-06-08T16:17:38.666Z,31.83
2019-06-08T16:20:07.315Z,31.49
2019-06-08T16:22:36.056Z,31.22
2019-06-08T16:25:05.959Z,31.74
2019-06-08T16:27:34.369Z,32.14
2019-06-08T16:30:09.018Z,32.11
2019-06-08T16:32:33.520Z,32.08
2019-06-08T16:35:01.962Z,31.26
2019-06-08T16:37:31.510Z,30.96
2019-06-08T16:40:00.067Z,30.87
2019-06-08T16:42:28.468Z,30.59
2019-06-08T16:44:56.914Z,30.30
2019-06-08T16:47:25.482Z,30.67
2019-06-08T16:49:53.903Z,30.42
2019-06-08T16:52:22.548Z,31.13
2019-06-08T16:54:50.927Z,29.78
2019-06-08T16:57:19.339Z,30.63
2019-06-08T16:59:47.758Z,30.23
2019-06-08T17:02:17.075Z,29.85
2019-06-08T17:04:45.666Z,29.18
2019-06-08T17:07:14.078Z,29.76
2019-06-08T17:09:42.563Z,29.57
2019-06-08T17:12:11.682Z,28.49
2019-06-08T17:14:40.694Z,29.32
2019-06-08T17:17:09.259Z,29.68
2019-06-08T17:19:38.495Z,30.34
2019-06-08T17:22:07.065Z,28.47
2019-06-08T17:24:36.743Z,29.51
2019-06-08T17:27:05.188Z,29.25
2019-06-08T17:29:34.777Z,29.51
2019-06-08T17:32:03.391Z,28.44
2019-06-08T17:34:31.867Z,28.52
2019-06-08T17:37:00.237Z,28.59
2019-06-08T17:39:29.548Z,29.10
2019-06-08T17:41:58.125Z,29.41
2019-06-08T17:44:26.547Z,29.73
2019-06-08T17:46:54.988Z,30.06
2019-06-08T17:49:23.434Z,29.81
2019-06-08T17:51:51.923Z,29.44
2019-06-08T17:54:20.344Z,29.62
2019-06-08T17:56:48.749Z,29.42
2019-06-08T17:59:17.165Z,29.49
2019-06-08T18:01:45.575Z,29.72
2019-06-08T18:04:13.988Z,31.58
2019-06-08T18:06:43.369Z,30.45
2019-06-08T18:09:12.543Z,30.96
2019-06-08T18:11:42.264Z,30.89
2019-06-08T18:14:11.864Z,30.32
2019-06-08T18:16:42.170Z,30.52
2019-06-08T18:19:24.984Z,30.55
2019-06-08T18:21:53.385Z,31.29
2019-06-08T18:24:21.778Z,31.51
2019-06-08T18:26:50.269Z,31.55
2019-06-08T18:29:18.684Z,32.44
2019-06-08T18:31:48.082Z,32.33
2019-06-08T18:34:17.834Z,32.08
2019-06-08T18:36:47.987Z,32.86
2019-06-08T18:39:18.368Z,32.97
2019-06-08T18:41:48.399Z,33.03
2019-06-08T18:44:17.500Z,35.47
2019-06-08T18:46:48.101Z,37.80
2019-06-08T18:49:17.902Z,39.23
2019-06-08T18:51:49.055Z,39.83
2019-06-08T18:54:18.782Z,40.99
2019-06-08T18:56:48.827Z,41.84
2019-06-08T18:59:18.315Z,41.38
2019-06-08T19:01:48.689Z,42.31
2019-06-08T19:04:17.353Z,41.96
2019-06-08T19:06:48.786Z,42.05
2019-06-08T19:09:17.245Z,42.30
2019-06-08T19:11:48.414Z,42.79
2019-06-08T19:14:17.890Z,42.49
2019-06-08T19:16:51.456Z,44.15
2019-06-08T19:19:16.055Z,44.15
2019-06-08T19:21:44.941Z,44.47
2019-06-08T19:24:13.468Z,44.92
2019-06-08T19:26:43.138Z,45.25
2019-06-08T19:29:11.997Z,45.45
2019-06-08T19:31:42.367Z,46.02
2019-06-08T19:34:10.560Z,45.84
2019-06-08T19:36:41.327Z,47.56
2019-06-08T19:39:09.099Z,44.91
2019-06-08T19:41:38.154Z,45.75
2019-06-08T19:44:07.808Z,46.04
2019-06-08T19:46:36.228Z,45.84
2019-06-08T19:49:04.632Z,45.32
2019-06-08T19:51:33.047Z,46.40
2019-06-08T19:54:01.451Z,46.09
2019-06-08T19:56:29.869Z,47.13
2019-06-08T19:59:04.029Z,47.26
2019-06-08T20:01:28.503Z,47.42
2019-06-08T20:03:58.116Z,48.34
2019-06-08T20:06:27.867Z,48.61
2019-06-08T20:08:57.560Z,48.91
2019-06-08T20:11:26.172Z,49.63
2019-06-08T20:13:54.578Z,51.08
2019-06-08T20:16:23.093Z,51.31
2019-06-08T20:18:52.922Z,51.71
2019-06-08T20:21:21.602Z,53.79
2019-06-08T20:23:50.922Z,54.60
2019-06-08T20:26:19.607Z,54.70
2019-06-08T20:28:51.302Z,55.21
2019-06-08T20:31:18.169Z,56.35
2019-06-08T20:33:48.208Z,56.82
2019-06-08T20:36:17.524Z,55.93
2019-06-08T20:38:47.430Z,57.41
2019-06-08T20:41:18.143Z,57.82
2019-06-08T20:43:49.134Z,58.12
2019-06-08T20:46:17.137Z,58.94
2019-06-08T20:48:48.373Z,59.15
2019-06-08T20:51:17.228Z,59.87
2019-06-08T20:53:49.059Z,59.64
2019-06-08T20:56:17.409Z,59.02
2019-06-08T20:58:47.926Z,58.76
2019-06-08T21:01:18.051Z,58.48
2019-06-08T21:03:48.173Z,59.51
2019-06-08T21:06:17.129Z,59.23
2019-06-08T21:08:46.609Z,59.81
2019-06-08T21:11:17.639Z,58.45
2019-06-08T21:13:49.297Z,58.69
2019-06-08T21:16:18.056Z,58.34
2019-06-08T21:18:46.851Z,58.83
2019-06-08T21:21:17.448Z,58.83
2019-06-08T21:23:48.904Z,57.98
2019-06-08T21:26:15.494Z,58.12
2019-06-08T21:28:43.923Z,57.87
2019-06-08T21:31:12.325Z,57.92
2019-06-08T21:33:40.740Z,57.80
2019-06-08T21:36:09.147Z,59.96
2019-06-08T21:38:37.815Z,59.93
2019-06-08T21:41:08.320Z,59.69
2019-06-08T21:43:37.427Z,58.96
2019-06-08T21:46:07.782Z,59.13
2019-06-08T21:48:38.158Z,59.68
2019-06-08T21:51:08.227Z,58.93
2019-06-08T21:53:38.210Z,59.00
2019-06-08T21:56:07.811Z,58.58
2019-06-08T21:58:37.841Z,59.02
2019-06-08T22:01:07.315Z,59.11
2019-06-08T22:03:37.931Z,58.98
2019-06-08T22:06:07.921Z,58.92
2019-06-08T22:08:37.611Z,58.62
2019-06-08T22:11:08.577Z,59.20
2019-06-08T22:13:37.456Z,59.19
2019-06-08T22:16:08.038Z,59.44
2019-06-08T22:18:38.095Z,59.36
2019-06-08T22:21:08.083Z,59.95
2019-06-08T22:23:36.532Z,59.72
2019-06-08T22:26:05.016Z,58.87
2019-06-08T22:28:33.439Z,58.92
2019-06-08T22:31:01.927Z,59.41
2019-06-08T22:33:30.378Z,59.61
2019-06-08T22:35:58.887Z,59.26
2019-06-08T22:38:27.320Z,58.56
2019-06-08T22:40:57.659Z,58.38
2019-06-08T22:43:25.862Z,58.82
2019-06-08T22:45:54.464Z,59.28
2019-06-08T22:48:22.870Z,58.69
2019-06-08T22:50:53.281Z,58.43
2019-06-08T22:53:21.417Z,58.25
2019-06-08T22:55:49.819Z,58.32
2019-06-08T22:58:19.087Z,58.45
2019-06-08T23:00:52.546Z,58.37
2019-06-08T23:03:18.631Z,58.85
2019-06-08T23:05:47.676Z,58.69
2019-06-08T23:08:17.595Z,58.94
2019-06-08T23:10:48.285Z,59.21
2019-06-08T23:13:17.923Z,59.35
2019-06-08T23:15:47.977Z,59.27
2019-06-08T23:18:17.860Z,59.36
2019-06-08T23:20:47.951Z,59.45
2019-06-08T23:23:17.923Z,59.45
2019-06-08T23:25:47.933Z,60.02
2019-06-08T23:28:18.164Z,60.07
2019-06-08T23:30:47.765Z,60.53
2019-06-08T23:33:18.911Z,60.51
2019-06-08T23:36:21.666Z,61.10
2019-06-08T23:38:17.337Z,60.88
2019-06-08T23:40:47.404Z,61.49
2019-06-08T23:43:18.130Z,61.76
2019-06-08T23:45:47.408Z,61.89
2019-06-08T23:48:17.364Z,61.91
2019-06-08T23:50:47.481Z,62.25
2019-06-08T23:53:18.062Z,62.38
2019-06-08T23:55:47.866Z,62.43
2019-06-08T23:58:17.607Z,62.43
